Time;durP1;ratioP1;P1;durP2;ratioP2;P2;SDS_P1;SDS_P2;PMS_P1;PMS_P2;Temp;Humidity;BMP_temperature;BMP_pressure;BME280_temperature;BME280_humidity;BME280_pressure;Samples;Min_cycle;Max_cycle;Signal;HPM_P1;HPM_P2
2022/04/11 00:01:29;;;;;;;17.27;9.57;;;1.90;97.20;;;;;;5016844;28;20017;-66
2022/04/11 00:03:54;;;;;;;14.18;9.30;;;1.90;97.50;;;;;;5025711;28;20034;-66
2022/04/11 00:06:20;;;;;;;13.63;9.55;;;2.00;97.40;;;;;;5033268;28;20033;-66
2022/04/11 00:08:46;;;;;;;13.48;9.05;;;2.00;97.10;;;;;;5030819;28;20029;-66
2022/04/11 00:11:11;;;;;;;18.67;10.63;;;2.00;97.10;;;;;;5027666;28;20030;-66
2022/04/11 00:13:37;;;;;;;15.15;9.10;;;2.00;97.20;;;;;;5021080;28;20046;-67
2022/04/11 00:16:03;;;;;;;12.77;8.88;;;2.00;97.30;;;;;;5023094;28;20027;-66
2022/04/11 00:18:29;;;;;;;15.15;9.43;;;2.00;97.30;;;;;;5031624;28;20021;-65
2022/04/11 00:20:54;;;;;;;14.20;8.60;;;2.00;97.10;;;;;;5029201;28;20101;-67
2022/04/11 00:23:20;;;;;;;13.60;8.75;;;2.00;97.10;;;;;;5024014;28;20100;-66
2022/04/11 00:25:46;;;;;;;11.93;8.85;;;1.90;97.00;;;;;;5029077;28;20033;-67
2022/04/11 00:28:11;;;;;;;17.05;9.32;;;1.90;97.20;;;;;;5025359;28;20075;-66
2022/04/11 00:30:37;;;;;;;11.77;8.07;;;1.80;97.30;;;;;;5030816;28;20489;-66
2022/04/11 00:33:03;;;;;;;14.05;8.40;;;1.70;97.30;;;;;;5024733;28;20026;-66
2022/04/11 00:35:28;;;;;;;15.85;9.15;;;1.70;97.50;;;;;;5029516;28;20080;-66
2022/04/11 00:37:54;;;;;;;12.90;8.48;;;1.70;97.70;;;;;;5017387;28;20033;-67
2022/04/11 00:40:20;;;;;;;14.15;9.25;;;1.70;97.70;;;;;;5022960;28;20022;-65
2022/04/11 00:42:49;;;;;;;12.65;8.70;;;1.90;97.50;;;;;;5025285;28;20030;-67
2022/04/11 00:45:18;;;;;;;13.68;8.45;;;1.90;97.30;;;;;;5025013;28;20355;-66
2022/04/11 00:47:46;;;;;;;17.80;8.93;;;2.00;97.20;;;;;;5025444;28;20037;-66
2022/04/11 00:50:13;;;;;;;13.73;9.20;;;1.90;97.20;;;;;;5031811;28;20430;-67
2022/04/11 00:52:48;;;;;;;15.15;8.98;;;1.90;97.30;;;;;;5028884;28;20419;-66
2022/04/11 00:55:16;;;;;;;16.33;10.25;;;1.90;97.40;;;;;;5025730;28;20033;-66
2022/04/11 00:57:43;;;;;;;14.43;9.75;;;1.90;97.60;;;;;;5022553;28;20029;-65
2022/04/11 01:00:10;;;;;;;19.17;9.57;;;1.90;97.50;;;;;;5029418;28;20034;-67
2022/04/11 01:02:36;;;;;;;13.23;9.40;;;1.90;97.60;;;;;;5018487;28;20084;-66
2022/04/11 01:05:02;;;;;;;16.75;10.50;;;2.00;97.50;;;;;;5028321;28;20017;-67
2022/04/11 01:07:27;;;;;;;14.27;9.35;;;2.00;97.50;;;;;;5019710;28;20049;-66
2022/04/11 01:09:54;;;;;;;14.65;9.00;;;2.10;97.40;;;;;;5025305;28;20318;-66
2022/04/11 01:12:22;;;;;;;18.17;10.00;;;2.10;97.10;;;;;;5023495;28;20405;-67
2022/04/11 01:14:47;;;;;;;13.50;9.15;;;2.10;97.00;;;;;;5028924;28;20405;-66
2022/04/11 01:17:13;;;;;;;13.50;9.70;;;2.10;97.00;;;;;;5018786;28;20022;-66
2022/04/11 01:19:39;;;;;;;13.13;8.93;;;2.10;97.00;;;;;;5019531;28;20044;-66
2022/04/11 01:22:04;;;;;;;15.68;9.85;;;2.10;97.00;;;;;;5029515;28;20032;-67
2022/04/11 01:24:32;;;;;;;15.77;8.80;;;2.10;97.00;;;;;;5021403;28;20415;-66
2022/04/11 01:26:58;;;;;;;16.13;10.13;;;2.10;97.30;;;;;;5023396;28;20083;-66
2022/04/11 01:29:24;;;;;;;14.13;9.68;;;2.00;97.30;;;;;;5028950;28;20104;-65
2022/04/11 01:31:53;;;;;;;17.20;9.07;;;2.00;97.40;;;;;;5026242;28;20026;-67
2022/04/11 01:34:21;;;;;;;12.48;8.68;;;2.00;97.40;;;;;;5023484;28;20030;-65
2022/04/11 01:36:47;;;;;;;15.82;8.60;;;2.10;97.10;;;;;;5020700;28;20022;-65
2022/04/11 01:39:13;;;;;;;14.82;9.13;;;2.10;97.10;;;;;;5036110;28;20067;-65
2022/04/11 01:41:38;;;;;;;14.63;9.40;;;2.10;97.10;;;;;;5035170;28;20327;-65
2022/04/11 01:44:04;;;;;;;12.82;9.27;;;2.10;97.00;;;;;;5028939;28;20026;-64
2022/04/11 01:46:30;;;;;;;14.07;8.75;;;2.10;97.00;;;;;;5027088;28;20040;-66
2022/04/11 01:48:55;;;;;;;15.20;8.77;;;2.10;96.90;;;;;;5028175;28;20029;-67
2022/04/11 01:51:21;;;;;;;13.95;9.20;;;2.10;96.90;;;;;;5025663;28;20113;-65
2022/04/11 01:53:47;;;;;;;11.98;8.30;;;2.10;96.80;;;;;;5026341;28;20424;-66
2022/04/11 01:56:12;;;;;;;12.52;8.82;;;2.10;96.80;;;;;;5027077;28;20113;-67
2022/04/11 01:58:38;;;;;;;14.15;9.25;;;2.10;96.90;;;;;;5035465;28;20022;-67
2022/04/11 02:01:04;;;;;;;15.02;9.18;;;2.10;97.00;;;;;;5032118;28;20333;-66
2022/04/11 02:03:32;;;;;;;16.05;8.98;;;2.00;97.10;;;;;;5029234;28;20026;-66
2022/04/11 02:05:58;;;;;;;12.93;8.75;;;2.10;97.30;;;;;;5028859;28;20025;-66
2022/04/11 02:08:24;;;;;;;14.27;9.43;;;2.10;97.10;;;;;;5029454;28;20032;-66
2022/04/11 02:10:50;;;;;;;14.90;9.57;;;2.20;96.90;;;;;;5031496;28;20068;-66
2022/04/11 02:13:18;;;;;;;15.45;9.40;;;2.20;96.90;;;;;;5034118;28;20531;-66
2022/04/11 02:15:44;;;;;;;14.55;9.32;;;2.20;97.00;;;;;;5034021;28;20471;-66
2022/04/11 02:18:10;;;;;;;15.35;9.23;;;2.20;97.00;;;;;;5026638;28;20082;-66
2022/04/11 02:20:38;;;;;;;13.15;8.98;;;2.20;96.90;;;;;;5024977;28;20026;-66
2022/04/11 02:23:04;;;;;;;13.50;9.00;;;2.30;96.70;;;;;;5029744;28;20030;-66
2022/04/11 02:25:32;;;;;;;12.85;8.75;;;2.30;96.60;;;;;;5027204;28;20032;-66
2022/04/11 02:27:58;;;;;;;15.05;9.35;;;2.40;96.50;;;;;;5028724;28;20319;-66
2022/04/11 02:30:25;;;;;;;13.68;8.15;;;2.40;96.40;;;;;;5025231;28;20033;-66
2022/04/11 02:32:52;;;;;;;13.48;8.82;;;2.40;96.00;;;;;;5021344;28;20087;-66
2022/04/11 02:35:18;;;;;;;14.25;8.80;;;2.50;96.00;;;;;;5018631;28;20033;-66
2022/04/11 02:37:47;;;;;;;14.48;9.13;;;2.40;96.00;;;;;;5027634;28;20028;-67
2022/04/11 02:40:13;;;;;;;13.18;9.05;;;2.50;96.00;;;;;;5018428;28;20029;-66
2022/04/11 02:42:43;;;;;;;13.98;8.77;;;2.50;95.90;;;;;;5033250;28;20029;-67
2022/04/11 02:45:12;;;;;;;12.80;8.07;;;2.50;95.70;;;;;;5032928;28;20033;-67
2022/04/11 02:47:39;;;;;;;12.50;8.13;;;2.60;95.60;;;;;;5025803;28;20037;-66
2022/04/11 02:50:05;;;;;;;22.83;11.75;;;2.60;95.60;;;;;;5021192;28;20026;-66
2022/04/11 02:52:31;;;;;;;49.25;27.13;;;2.60;95.50;;;;;;5024545;28;20701;-66
2022/04/11 02:54:57;;;;;;;52.35;32.80;;;2.60;95.30;;;;;;5022515;28;20403;-67
2022/04/11 02:57:23;;;;;;;25.27;18.52;;;2.60;95.20;;;;;;5023055;28;20441;-66
2022/04/11 02:59:49;;;;;;;21.17;13.93;;;2.60;94.90;;;;;;5039947;28;20033;-67
2022/04/11 03:02:15;;;;;;;48.38;27.17;;;2.60;94.80;;;;;;5031459;28;20057;-66
2022/04/11 03:04:40;;;;;;;14.88;8.75;;;2.60;94.90;;;;;;5032761;28;20424;-67
2022/04/11 03:07:09;;;;;;;13.10;8.38;;;2.70;94.80;;;;;;5025315;28;20026;-66
2022/04/11 03:09:35;;;;;;;13.52;8.48;;;2.70;94.70;;;;;;5032776;28;20038;-66
2022/04/11 03:12:01;;;;;;;14.85;8.75;;;2.60;94.90;;;;;;5023796;28;20034;-66
2022/04/11 03:14:26;;;;;;;11.77;8.50;;;2.60;94.80;;;;;;5036691;28;20112;-65
2022/04/11 03:16:52;;;;;;;14.10;8.45;;;2.60;94.60;;;;;;5027457;28;20056;-66
2022/04/11 03:19:18;;;;;;;17.60;9.23;;;2.60;94.70;;;;;;5017638;28;20343;-66
2022/04/11 03:21:44;;;;;;;13.73;8.55;;;2.60;94.80;;;;;;5027046;28;20438;-66
2022/04/11 03:24:10;;;;;;;15.45;8.18;;;2.60;94.60;;;;;;5029244;28;20025;-67
2022/04/11 03:26:36;;;;;;;11.43;8.15;;;2.60;94.40;;;;;;5032579;28;20025;-67
2022/04/11 03:29:02;;;;;;;14.32;7.53;;;2.60;94.60;;;;;;5031876;28;20025;-67
2022/04/11 03:31:28;;;;;;;12.75;8.05;;;2.60;94.60;;;;;;5026089;28;20088;-67
2022/04/11 03:33:54;;;;;;;11.73;7.88;;;2.60;94.60;;;;;;5033904;28;20025;-67
2022/04/11 03:36:21;;;;;;;14.85;8.30;;;2.60;94.60;;;;;;5036230;28;20025;-67
2022/04/11 03:38:47;;;;;;;12.07;8.43;;;2.50;94.50;;;;;;5020682;28;20040;-66
2022/04/11 03:41:12;;;;;;;11.65;8.00;;;2.60;94.40;;;;;;5017046;28;20018;-66
2022/04/11 03:43:38;;;;;;;11.73;7.30;;;2.60;94.40;;;;;;5026968;28;20017;-66
2022/04/11 03:46:06;;;;;;;12.52;7.80;;;2.60;94.20;;;;;;5032735;28;20049;-66
2022/04/11 03:48:32;;;;;;;11.90;7.72;;;2.60;94.20;;;;;;5016601;28;20049;-66
2022/04/11 03:51:01;;;;;;;15.15;8.13;;;2.60;94.00;;;;;;5035100;28;20081;-67
2022/04/11 03:53:27;;;;;;;11.95;7.80;;;2.60;94.00;;;;;;5035964;28;20033;-66
2022/04/11 03:55:52;;;;;;;10.85;7.45;;;2.50;93.90;;;;;;5036034;28;20100;-66
2022/04/11 03:58:18;;;;;;;10.95;7.40;;;2.50;93.80;;;;;;5035985;28;20026;-66
2022/04/11 04:00:46;;;;;;;11.02;7.32;;;2.50;93.80;;;;;;5021854;28;20021;-67
2022/04/11 04:03:15;;;;;;;12.15;7.25;;;2.40;93.80;;;;;;5031006;28;20464;-66
2022/04/11 04:05:45;;;;;;;10.80;7.20;;;2.40;93.70;;;;;;5027380;28;20157;-67
2022/04/11 04:08:12;;;;;;;10.27;7.57;;;2.40;93.90;;;;;;5018195;28;20362;-65
2022/04/11 04:10:40;;;;;;;12.15;7.40;;;2.30;93.80;;;;;;5029212;28;20034;-67
2022/04/11 04:13:09;;;;;;;10.82;6.60;;;2.40;93.70;;;;;;5016995;28;20136;-67
2022/04/11 04:15:36;;;;;;;9.55;7.05;;;2.40;93.00;;;;;;5033207;28;20477;-67
2022/04/11 04:18:02;;;;;;;12.05;7.47;;;2.40;93.00;;;;;;5035214;28;20116;-66
2022/04/11 04:20:28;;;;;;;12.55;6.75;;;2.30;93.40;;;;;;5023681;28;20485;-66
2022/04/11 04:22:54;;;;;;;10.85;6.97;;;2.20;93.60;;;;;;5023206;28;20101;-67
2022/04/11 04:25:19;;;;;;;10.10;7.03;;;2.20;93.60;;;;;;5030356;28;20452;-66
2022/04/11 04:27:45;;;;;;;11.02;6.50;;;2.20;93.60;;;;;;5029730;28;20029;-66
2022/04/11 04:30:12;;;;;;;9.10;6.70;;;2.20;93.20;;;;;;5033945;28;20099;-66
2022/04/11 04:32:41;;;;;;;11.68;7.10;;;2.20;93.10;;;;;;5028066;28;20434;-65
2022/04/11 04:35:08;;;;;;;9.73;6.78;;;2.20;92.80;;;;;;5024209;28;20068;-65
2022/04/11 04:37:34;;;;;;;12.45;6.78;;;2.20;93.00;;;;;;5026449;28;20110;-66
2022/04/11 04:40:00;;;;;;;10.65;5.85;;;2.10;93.00;;;;;;5025367;28;20045;-67
2022/04/11 04:42:28;;;;;;;9.43;6.35;;;2.10;92.90;;;;;;5023573;28;20029;-67
2022/04/11 04:44:55;;;;;;;10.27;5.88;;;2.10;92.70;;;;;;5025713;28;20443;-67
2022/04/11 04:47:20;;;;;;;13.20;6.70;;;2.10;92.60;;;;;;5021177;28;20060;-67
2022/04/11 04:49:47;;;;;;;8.68;5.80;;;2.10;92.30;;;;;;5016951;28;20058;-67
2022/04/11 04:52:13;;;;;;;11.77;5.95;;;2.10;92.10;;;;;;5021038;28;20022;-67
2022/04/11 04:54:38;;;;;;;10.00;5.93;;;2.10;91.90;;;;;;5029431;28;20025;-67
2022/04/11 04:57:05;;;;;;;10.35;6.05;;;2.20;92.00;;;;;;5027430;28;20108;-66
2022/04/11 04:59:30;;;;;;;12.75;6.15;;;2.10;91.80;;;;;;5020012;28;20026;-66
2022/04/11 05:01:56;;;;;;;9.65;5.78;;;2.10;91.60;;;;;;5025100;28;20079;-67
2022/04/11 05:04:22;;;;;;;9.98;6.57;;;2.10;91.90;;;;;;5026622;28;20375;-66
2022/04/11 05:06:51;;;;;;;11.05;5.70;;;2.10;91.80;;;;;;5020021;28;20029;-67
2022/04/11 05:09:17;;;;;;;8.35;5.20;;;2.10;91.60;;;;;;5025538;28;20033;-66
2022/04/11 05:11:43;;;;;;;7.82;5.10;;;2.10;91.50;;;;;;5024773;28;20441;-66
2022/04/11 05:14:08;;;;;;;8.70;5.25;;;2.10;91.30;;;;;;5030040;28;20042;-67
2022/04/11 05:16:34;;;;;;;9.45;5.15;;;2.10;91.30;;;;;;5027298;28;20026;-66
2022/04/11 05:19:00;;;;;;;9.50;5.20;;;2.20;91.10;;;;;;5031653;28;20107;-67
2022/04/11 05:21:29;;;;;;;9.07;5.75;;;2.30;91.00;;;;;;5032767;28;20360;-66
2022/04/11 05:23:55;;;;;;;8.20;5.03;;;2.30;90.50;;;;;;5024872;28;20034;-67
2022/04/11 05:26:20;;;;;;;8.70;5.13;;;2.30;90.30;;;;;;5026024;28;20034;-66
2022/04/11 05:28:50;;;;;;;8.10;5.40;;;2.50;89.80;;;;;;5029047;28;20096;-66
2022/04/11 05:31:17;;;;;;;7.20;4.70;;;2.50;89.70;;;;;;5027871;28;20112;-66
2022/04/11 05:33:42;;;;;;;8.73;5.00;;;2.50;89.60;;;;;;5034292;28;20084;-67
2022/04/11 05:36:08;;;;;;;8.27;5.20;;;2.60;89.20;;;;;;5019290;28;20400;-66
2022/04/11 05:38:34;;;;;;;6.63;4.28;;;2.70;88.80;;;;;;5029037;28;20068;-67
2022/04/11 05:40:59;;;;;;;9.13;4.80;;;2.80;88.50;;;;;;5032427;28;20057;-66
2022/04/11 05:43:25;;;;;;;7.65;4.90;;;2.80;88.40;;;;;;5026759;28;20029;-66
2022/04/11 05:45:51;;;;;;;8.88;4.68;;;2.80;88.30;;;;;;5034538;28;20105;-67
2022/04/11 05:48:16;;;;;;;8.70;4.60;;;2.90;88.00;;;;;;5037136;28;20068;-67
2022/04/11 05:50:42;;;;;;;11.48;4.78;;;3.00;87.70;;;;;;5034775;28;20049;-67
2022/04/11 05:53:08;;;;;;;9.88;5.88;;;3.20;86.90;;;;;;5025871;28;20029;-66
2022/04/11 05:55:33;;;;;;;6.82;4.25;;;3.30;86.80;;;;;;5031264;28;20445;-66
2022/04/11 05:58:02;;;;;;;8.00;4.53;;;3.40;86.60;;;;;;5038358;28;20033;-66
2022/04/11 06:00:28;;;;;;;8.10;4.53;;;3.40;86.40;;;;;;5023945;28;20014;-67
2022/04/11 06:02:54;;;;;;;8.02;4.72;;;3.50;86.10;;;;;;5019128;28;20037;-67
2022/04/11 06:05:19;;;;;;;6.45;3.88;;;3.70;85.50;;;;;;5027170;28;20032;-66
2022/04/11 06:07:45;;;;;;;9.02;3.72;;;3.80;84.90;;;;;;5028534;28;20041;-67
2022/04/11 06:10:12;;;;;;;7.63;4.15;;;3.90;84.40;;;;;;5021363;28;20026;-67
2022/04/11 06:12:41;;;;;;;8.63;4.15;;;4.10;83.90;;;;;;5023403;28;20064;-67
2022/04/11 06:15:07;;;;;;;7.43;3.78;;;4.20;83.90;;;;;;5019742;28;20459;-66
2022/04/11 06:17:33;;;;;;;9.30;4.30;;;4.40;82.90;;;;;;5025559;28;20029;-66
2022/04/11 06:19:59;;;;;;;7.05;4.05;;;4.90;81.30;;;;;;5017725;28;20092;-66
2022/04/11 06:22:26;;;;;;;5.65;3.70;;;5.30;80.80;;;;;;5022133;28;20037;-67
2022/04/11 06:25:01;;;;;;;7.22;3.97;;;5.70;79.70;;;;;;5023346;28;20084;-66
2022/04/11 06:27:27;;;;;;;6.40;3.63;;;5.80;78.40;;;;;;5025564;28;20029;-67
2022/04/11 06:29:56;;;;;;;6.15;3.45;;;5.70;78.70;;;;;;5030884;28;20029;-67
2022/04/11 06:32:32;;;;;;;5.80;3.08;;;5.50;78.70;;;;;;5020371;28;20037;-66
2022/04/11 06:34:58;;;;;;;5.25;3.00;;;5.20;79.10;;;;;;5029473;28;20350;-67
2022/04/11 06:37:27;;;;;;;6.72;3.65;;;5.10;80.50;;;;;;5038108;28;20045;-67
2022/04/11 06:39:54;;;;;;;6.43;3.55;;;5.00;80.00;;;;;;5030636;28;20029;-66
2022/04/11 06:42:20;;;;;;;5.97;3.40;;;5.10;80.70;;;;;;5032456;28;20076;-66
2022/04/11 06:44:46;;;;;;;6.20;3.55;;;5.00;80.30;;;;;;5024488;28;20029;-67
2022/04/11 06:47:14;;;;;;;8.40;3.88;;;5.10;80.50;;;;;;5024734;28;20113;-66
2022/04/11 06:49:40;;;;;;;7.63;3.50;;;5.10;80.80;;;;;;5020007;28;20330;-67
2022/04/11 06:52:06;;;;;;;6.53;3.78;;;5.20;80.40;;;;;;5025181;28;20032;-66
2022/04/11 06:54:32;;;;;;;6.65;3.40;;;5.20;80.40;;;;;;5032627;28;20049;-67
2022/04/11 06:56:59;;;;;;;8.30;3.40;;;5.30;80.50;;;;;;5024811;28;20022;-68
2022/04/11 06:59:28;;;;;;;7.47;3.60;;;5.40;79.60;;;;;;5023280;28;20033;-66
2022/04/11 07:01:53;;;;;;;6.95;3.25;;;5.40;79.40;;;;;;5019399;28;20029;-67
2022/04/11 07:04:20;;;;;;;7.78;3.50;;;5.50;79.90;;;;;;5033234;28;20033;-67
2022/04/11 07:06:46;;;;;;;5.35;3.10;;;5.60;79.20;;;;;;5016857;28;20442;-66
2022/04/11 07:09:12;;;;;;;9.63;3.00;;;5.60;79.10;;;;;;5019212;28;20034;-67
2022/04/11 07:11:37;;;;;;;6.47;3.22;;;5.70;79.00;;;;;;5020432;28;20037;-66
2022/04/11 07:14:04;;;;;;;6.10;3.03;;;5.70;78.40;;;;;;5027710;28;20046;-67
2022/04/11 07:16:29;;;;;;;6.55;3.10;;;5.80;78.80;;;;;;5017777;28;20022;-67
2022/04/11 07:18:57;;;;;;;6.25;3.03;;;5.90;78.30;;;;;;5016942;28;20033;-67
2022/04/11 07:21:23;;;;;;;7.50;3.60;;;6.00;78.80;;;;;;5021790;28;20026;-67
2022/04/11 07:23:48;;;;;;;6.55;3.00;;;6.20;78.90;;;;;;5021705;28;20026;-65
2022/04/11 07:26:14;;;;;;;6.10;3.15;;;6.30;78.10;;;;;;5019908;28;20109;-65
2022/04/11 07:28:40;;;;;;;6.43;3.38;;;6.40;77.70;;;;;;5018262;28;20037;-65
2022/04/11 07:31:08;;;;;;;4.90;3.10;;;6.50;78.60;;;;;;5030159;28;20021;-64
2022/04/11 07:33:34;;;;;;;7.72;3.00;;;6.60;77.80;;;;;;5016690;28;20504;-65
2022/04/11 07:36:00;;;;;;;4.95;2.88;;;6.70;77.20;;;;;;5031087;28;20472;-67
2022/04/11 07:38:26;;;;;;;5.25;2.97;;;6.80;76.20;;;;;;5032246;28;20025;-67
2022/04/11 07:40:52;;;;;;;6.03;3.13;;;6.90;76.50;;;;;;5037117;28;20017;-67
2022/04/11 07:43:17;;;;;;;6.18;3.20;;;7.00;76.30;;;;;;5030149;28;20053;-66
2022/04/11 07:45:43;;;;;;;4.97;3.08;;;7.10;76.30;;;;;;5017039;28;20328;-67
2022/04/11 07:48:09;;;;;;;6.10;3.15;;;7.20;75.30;;;;;;5024643;28;20108;-67
2022/04/11 07:50:35;;;;;;;7.72;3.30;;;7.30;74.90;;;;;;5035705;28;20440;-66
2022/04/11 07:53:01;;;;;;;8.23;3.63;;;7.30;74.60;;;;;;5036730;28;20040;-66
2022/04/11 07:55:27;;;;;;;5.80;3.20;;;7.40;74.30;;;;;;5036213;28;20022;-66
2022/04/11 07:57:53;;;;;;;6.63;3.00;;;7.50;74.40;;;;;;5026207;28;20059;-66
2022/04/11 08:00:20;;;;;;;5.45;2.60;;;7.80;74.70;;;;;;5035787;28;20371;-66
2022/04/11 08:02:51;;;;;;;6.10;2.78;;;8.30;73.80;;;;;;5020368;28;20029;-67
2022/04/11 08:05:19;;;;;;;6.47;3.03;;;9.30;71.20;;;;;;5020328;28;20478;-66
2022/04/11 08:07:45;;;;;;;5.30;2.70;;;10.10;68.60;;;;;;5036551;28;20407;-66
2022/04/11 08:10:11;;;;;;;5.95;2.70;;;10.90;68.10;;;;;;5026586;28;20018;-66
2022/04/11 08:12:37;;;;;;;5.50;2.50;;;11.70;66.10;;;;;;5020967;28;20335;-66
2022/04/11 08:15:02;;;;;;;4.15;2.25;;;12.30;63.90;;;;;;5016412;28;20026;-67
2022/04/11 08:17:31;;;;;;;4.10;2.00;;;13.00;61.60;;;;;;5015382;28;20052;-66
2022/04/11 08:19:57;;;;;;;4.75;2.42;;;13.40;61.40;;;;;;5016527;28;20440;-67
2022/04/11 08:22:22;;;;;;;4.90;2.33;;;13.60;59.60;;;;;;5026219;28;20044;-67
2022/04/11 08:24:48;;;;;;;5.20;2.50;;;12.80;60.30;;;;;;5036386;28;20048;-66
2022/04/11 08:27:15;;;;;;;4.97;2.17;;;12.50;60.80;;;;;;5035422;28;20325;-66
2022/04/11 08:29:41;;;;;;;4.93;2.67;;;12.30;63.20;;;;;;5035885;28;20430;-66
2022/04/11 08:32:06;;;;;;;5.07;2.47;;;12.00;60.80;;;;;;5015715;28;20076;-65
2022/04/11 08:34:32;;;;;;;4.93;2.47;;;11.50;61.70;;;;;;5015751;28;20037;-66
2022/04/11 08:36:58;;;;;;;7.10;2.60;;;11.60;63.30;;;;;;5017749;28;20071;-65
2022/04/11 08:39:24;;;;;;;4.18;2.10;;;11.90;62.60;;;;;;5029000;28;20018;-66
2022/04/11 08:41:52;;;;;;;5.28;2.33;;;12.10;61.10;;;;;;5025835;28;20103;-66
2022/04/11 08:44:19;;;;;;;4.68;2.03;;;12.40;61.20;;;;;;5036032;28;20064;-67
2022/04/11 08:46:47;;;;;;;3.90;1.90;;;12.90;60.10;;;;;;5036019;28;20033;-67
2022/04/11 08:49:12;;;;;;;4.97;2.25;;;13.40;59.30;;;;;;5034759;28;20025;-66
2022/04/11 08:51:38;;;;;;;5.78;2.20;;;13.80;58.90;;;;;;5036029;28;20410;-66
2022/04/11 08:54:05;;;;;;;4.78;2.08;;;13.90;58.60;;;;;;5035951;28;20025;-66
2022/04/11 08:56:32;;;;;;;5.80;2.08;;;13.40;57.50;;;;;;5021160;28;20033;-66
2022/04/11 08:58:58;;;;;;;5.63;2.05;;;12.80;59.30;;;;;;5018580;28;20025;-66
2022/04/11 09:01:25;;;;;;;4.00;1.98;;;12.90;57.70;;;;;;5016295;28;20029;-67
2022/04/11 09:03:50;;;;;;;4.90;2.00;;;13.00;59.10;;;;;;5014992;28;20028;-67
2022/04/11 09:06:20;;;;;;;4.43;1.92;;;13.70;58.40;;;;;;5016009;28;20034;-66
2022/04/11 09:08:50;;;;;;;4.63;2.10;;;13.80;58.20;;;;;;5016163;28;20022;-66
2022/04/11 09:11:37;;;;;;;3.70;1.77;;;13.50;56.30;;;;;;5028735;28;20026;-66
2022/04/11 09:14:07;;;;;;;4.63;2.42;;;13.90;57.90;;;;;;5035359;28;20048;-66
2022/04/11 09:16:48;;;;;;;5.35;2.00;;;14.20;58.00;;;;;;5035923;28;20025;-67
2022/04/11 09:19:22;;;;;;;4.95;2.45;;;15.40;57.30;;;;;;5034571;28;20033;-65
2022/04/11 09:21:48;;;;;;;4.35;1.92;;;16.10;55.60;;;;;;5035648;28;20286;-66
2022/04/11 09:24:19;;;;;;;5.45;2.00;;;16.00;53.40;;;;;;5034818;28;20038;-66
2022/04/11 09:26:46;;;;;;;4.20;1.90;;;14.70;54.90;;;;;;5016792;28;20053;-66
2022/04/11 09:29:12;;;;;;;3.97;1.90;;;14.80;57.00;;;;;;5015846;28;20100;-66
2022/04/11 09:31:38;;;;;;;4.20;2.08;;;15.70;55.70;;;;;;5015973;28;20050;-66
2022/04/11 09:34:19;;;;;;;3.75;1.70;;;16.60;54.90;;;;;;5014471;28;20410;-66
2022/04/11 09:36:52;;;;;;;5.15;1.80;;;17.00;53.20;;;;;;5015723;28;20033;-67
2022/04/11 09:39:22;;;;;;;4.57;2.00;;;16.10;52.90;;;;;;5016382;28;20323;-66
2022/04/11 09:41:49;;;;;;;6.38;2.30;;;15.80;55.50;;;;;;5035509;28;20309;-66
2022/04/11 09:44:28;;;;;;;5.00;1.98;;;15.90;56.20;;;;;;5035568;28;20049;-66
2022/04/11 09:47:04;;;;;;;5.07;2.25;;;16.30;55.00;;;;;;5035657;28;20057;-66
2022/04/11 09:49:31;;;;;;;4.72;1.85;;;16.30;54.10;;;;;;5034710;28;20032;-66
2022/04/11 09:52:13;;;;;;;4.78;1.70;;;16.30;52.90;;;;;;5035386;28;20044;-66
2022/04/11 09:54:49;;;;;;;4.15;1.85;;;16.60;55.70;;;;;;5029422;28;20057;-67
2022/04/11 09:57:17;;;;;;;6.03;2.10;;;16.70;54.70;;;;;;5016175;28;20581;-67
2022/04/11 09:59:44;;;;;;;4.65;1.98;;;17.10;52.90;;;;;;5018198;28;20116;-66
2022/04/11 10:02:10;;;;;;;4.13;1.80;;;17.20;54.90;;;;;;5018331;28;20106;-66
2022/04/11 10:04:38;;;;;;;4.10;1.88;;;17.80;52.40;;;;;;5019131;28;20108;-66
2022/04/11 10:07:04;;;;;;;3.70;1.70;;;18.00;52.20;;;;;;5019066;28;20057;-66
2022/04/11 10:09:30;;;;;;;4.50;2.05;;;17.80;52.00;;;;;;5025300;28;20029;-67
2022/04/11 10:11:56;;;;;;;5.10;1.90;;;18.00;51.90;;;;;;5038743;28;20441;-66
2022/04/11 10:14:23;;;;;;;3.70;2.00;;;17.80;52.90;;;;;;5038717;28;20045;-66
2022/04/11 10:17:03;;;;;;;3.65;1.60;;;18.20;52.20;;;;;;5038638;28;20032;-66
2022/04/11 10:19:35;;;;;;;4.32;1.98;;;18.50;51.20;;;;;;5037497;28;20041;-65
2022/04/11 10:22:04;;;;;;;3.70;1.60;;;17.90;50.50;;;;;;5038587;28;20044;-65
2022/04/11 10:24:34;;;;;;;4.82;2.08;;;17.90;52.00;;;;;;5029833;28;20080;-65
2022/04/11 10:27:19;;;;;;;4.80;2.00;;;18.10;52.50;;;;;;5018722;28;20026;-65
2022/04/11 10:29:45;;;;;;;3.28;1.58;;;17.90;50.50;;;;;;5018806;28;20380;-67
2022/04/11 10:32:16;;;;;;;5.53;1.80;;;17.50;51.00;;;;;;5017464;28;20022;-66
2022/04/11 10:34:51;;;;;;;3.65;1.58;;;18.10;52.00;;;;;;5018424;28;20053;-67
2022/04/11 10:37:19;;;;;;;4.43;2.05;;;18.60;50.20;;;;;;5018603;28;20025;-67
2022/04/11 10:39:46;;;;;;;3.58;1.80;;;18.40;51.40;;;;;;5026576;28;20350;-67
2022/04/11 10:42:14;;;;;;;3.97;1.40;;;18.40;50.40;;;;;;5038295;28;20025;-67
2022/04/11 10:44:45;;;;;;;4.10;1.52;;;18.50;50.30;;;;;;5036660;28;20442;-66
2022/04/11 10:47:15;;;;;;;4.05;1.70;;;18.50;49.60;;;;;;5036585;28;20343;-66
2022/04/11 10:50:06;;;;;;;2.95;1.45;;;18.70;49.50;;;;;;5038061;28;20411;-66
2022/04/11 10:52:36;;;;;;;2.88;1.40;;;18.80;48.10;;;;;;5037596;28;20037;-66
2022/04/11 10:55:11;;;;;;;4.22;1.60;;;18.70;48.00;;;;;;5037923;28;20075;-66
2022/04/11 10:57:38;;;;;;;4.85;1.70;;;18.00;50.30;;;;;;5037865;28;20029;-66
2022/04/11 11:00:20;;;;;;;4.90;1.60;;;17.90;49.50;;;;;;5038095;28;20018;-66
2022/04/11 11:02:52;;;;;;;4.05;1.45;;;18.10;50.60;;;;;;5016804;28;20022;-66
2022/04/11 11:05:31;;;;;;;4.10;1.52;;;18.80;50.30;;;;;;5017929;28;20037;-66
2022/04/11 11:08:12;;;;;;;5.13;2.22;;;18.70;46.50;;;;;;5017775;28;20034;-66
2022/04/11 11:10:45;;;;;;;3.40;1.40;;;18.30;47.20;;;;;;5017126;28;20033;-66
2022/04/11 11:13:38;;;;;;;4.00;1.55;;;18.30;49.70;;;;;;5017502;28;20125;-66
2022/04/11 11:16:07;;;;;;;5.53;1.50;;;19.30;49.50;;;;;;5017776;28;20034;-66
2022/04/11 11:18:48;;;;;;;3.20;1.42;;;20.10;46.80;;;;;;5020697;28;20017;-66
2022/04/11 11:21:28;;;;;;;3.95;1.60;;;19.40;44.60;;;;;;5037648;28;20071;-66
2022/04/11 11:26:54;;;;;;;3.25;1.45;;;18.50;48.20;;;;;;5037077;28;20537;-66
2022/04/11 11:29:23;;;;;;;3.40;1.38;;;19.20;48.70;;;;;;5017667;28;20034;-66
2022/04/11 11:31:53;;;;;;;4.80;1.60;;;19.30;46.90;;;;;;5017615;28;20029;-66
2022/04/11 11:34:21;;;;;;;4.18;1.50;;;19.30;47.50;;;;;;5016199;28;20045;-66
2022/04/11 11:36:53;;;;;;;4.65;1.60;;;19.00;45.90;;;;;;5029512;28;20022;-66
2022/04/11 11:39:21;;;;;;;9.45;1.75;;;18.50;46.80;;;;;;5036945;28;20033;-66
2022/04/11 11:41:55;;;;;;;5.57;1.98;;;18.00;46.00;;;;;;5037096;28;20048;-66
2022/04/11 11:44:21;;;;;;;3.72;1.80;;;17.90;46.60;;;;;;5037260;28;20033;-66
2022/04/11 11:46:53;;;;;;;4.28;1.80;;;18.30;47.80;;;;;;5037021;28;20029;-66
2022/04/11 11:49:20;;;;;;;4.68;1.83;;;18.60;48.70;;;;;;5035760;28;20029;-66
2022/04/11 11:51:46;;;;;;;3.90;1.75;;;18.80;49.40;;;;;;5036670;28;20029;-66
2022/04/11 11:54:13;;;;;;;5.15;2.58;;;19.10;49.00;;;;;;5036734;28;20049;-66
2022/04/11 11:56:46;;;;;;;5.43;1.83;;;18.70;47.30;;;;;;5032413;28;20013;-66
2022/04/11 11:59:15;;;;;;;4.55;1.95;;;18.50;46.30;;;;;;5025655;28;20021;-66
2022/04/11 12:04:18;;;;;;;4.90;2.33;;;18.40;49.20;;;;;;5016978;28;20080;-66
2022/04/11 12:04:34;;;;;;;4.53;2.10;;;18.10;48.50;;;;;;5017133;28;20029;-66
2022/04/11 12:07:00;;;;;;;4.72;2.00;;;18.50;50.40;;;;;;5032084;28;20022;-66
2022/04/11 12:09:37;;;;;;;4.30;2.10;;;18.80;49.90;;;;;;5036246;28;20048;-66
2022/04/11 12:12:04;;;;;;;6.07;2.15;;;19.20;47.60;;;;;;5036130;28;20354;-66
2022/04/11 12:14:51;;;;;;;4.78;2.42;;;19.40;47.90;;;;;;5036380;28;20155;-66
2022/04/11 12:17:16;;;;;;;6.00;1.95;;;19.50;51.20;;;;;;5032861;28;20053;-65
2022/04/11 12:19:42;;;;;;;3.92;1.70;;;19.60;50.20;;;;;;5036351;28;20021;-65
2022/04/11 12:22:13;;;;;;;6.70;2.30;;;19.40;47.80;;;;;;5034569;28;20037;-66
2022/04/11 12:24:39;;;;;;;4.78;1.92;;;19.00;49.70;;;;;;5018455;28;20030;-66
2022/04/11 12:27:06;;;;;;;4.68;2.47;;;18.70;48.80;;;;;;5028021;28;20322;-66
2022/04/11 12:29:42;;;;;;;5.15;2.50;;;18.70;48.30;;;;;;5036128;28;20029;-66
2022/04/11 12:32:15;;;;;;;4.35;2.00;;;18.70;49.90;;;;;;5023237;28;20026;-65
2022/04/11 12:34:43;;;;;;;4.28;1.85;;;18.60;51.30;;;;;;5017449;28;20022;-66
2022/04/11 12:37:11;;;;;;;5.22;2.50;;;18.60;50.50;;;;;;5017447;28;20028;-66
2022/04/11 12:39:54;;;;;;;4.78;2.22;;;18.30;49.60;;;;;;5016544;28;20308;-66
2022/04/11 12:42:21;;;;;;;4.07;2.13;;;18.40;50.50;;;;;;5016459;28;20385;-65
2022/04/11 12:44:48;;;;;;;4.43;2.17;;;18.60;52.40;;;;;;5016438;28;20080;-66
2022/04/11 12:47:13;;;;;;;4.53;1.80;;;18.70;48.70;;;;;;5016104;28;20033;-65
2022/04/11 12:49:57;;;;;;;3.75;1.80;;;18.90;47.90;;;;;;5036243;28;20414;-66
2022/04/11 12:52:27;;;;;;;4.95;2.30;;;19.00;50.30;;;;;;5034211;28;20031;-66
2022/04/11 12:55:03;;;;;;;4.30;1.77;;;19.10;47.90;;;;;;5035946;28;20365;-66